Time;durP1;ratioP1;P1;durP2;ratioP2;P2;SDS_P1;SDS_P2;PMS_P1;PMS_P2;Temp;Humidity;BMP_temperature;BMP_pressure;BME280_temperature;BME280_humidity;BME280_pressure;Samples;Min_cycle;Max_cycle;Signal;HPM_P1;HPM_P2
2024/03/18 00:01:26;;;;;;;;;;;11.40;99.90;;;11.70;73.24;100465.38;4960246;29;19997;-84
2024/03/18 00:03:54;;;;;;;;;;;11.40;99.90;;;11.68;73.11;100459.44;4962251;29;20439;-84
2024/03/18 00:06:21;;;;;;;;;;;11.40;99.90;;;11.69;73.15;100461.09;4962043;29;19976;-84
2024/03/18 00:08:48;;;;;;;;;;;11.40;99.90;;;11.68;73.24;100462.13;4961773;29;19933;-84
2024/03/18 00:11:15;;;;;;;;;;;11.40;99.90;;;11.65;72.99;100460.69;4962433;29;19938;-85
2024/03/18 00:13:45;;;;;;;;;;;11.40;99.90;;;11.65;73.19;100459.88;4945082;29;19933;-84
2024/03/18 00:16:12;;;;;;;;;;;11.30;99.90;;;11.62;73.24;100460.34;4962051;29;19927;-84
2024/03/18 00:18:40;;;;;;;;;;;11.30;99.90;;;11.63;73.36;100460.09;4944894;29;20037;-84
2024/03/18 00:21:06;;;;;;;;;;;11.30;99.90;;;11.46;73.86;100457.13;4963053;29;19950;-84
2024/03/18 00:23:34;;;;;;;;;;;11.30;99.90;;;11.44;74.53;100455.75;4945802;29;19927;-84
2024/03/18 00:26:01;;;;;;;;;;;11.20;99.90;;;11.47;74.51;100453.47;4945809;29;19934;-84
2024/03/18 00:28:31;;;;;;;;;;;11.20;99.90;;;11.45;74.81;100452.03;4945348;28;19926;-84
2024/03/18 00:31:02;;;;;;;;;;;11.20;99.90;;;11.47;74.83;100453.47;4960824;29;19926;-85
2024/03/18 00:33:31;;;;;;;;;;;11.20;99.90;;;11.49;74.94;100451.38;4963387;29;19950;-85
2024/03/18 00:35:58;;;;;;;;;;;11.20;99.90;;;11.51;74.99;100446.63;4945569;29;19973;-85
2024/03/18 00:38:26;;;;;;;;;;;11.20;99.90;;;11.50;74.97;100445.00;4962844;29;19926;-84
2024/03/18 00:41:44;;;;;;;;;;;11.20;99.90;;;11.45;75.35;100436.00;4945131;29;19934;-84
2024/03/18 00:43:43;;;;;;;;;;;11.20;99.90;;;11.44;75.35;100443.19;4962278;29;20032;-84
2024/03/18 00:46:12;;;;;;;;;;;11.20;99.90;;;11.44;75.59;100437.03;4945774;29;20032;-85
2024/03/18 00:48:39;;;;;;;;;;;11.20;99.90;;;11.34;76.20;100435.69;4963228;28;19926;-85
2024/03/18 00:51:06;;;;;;;;;;;11.10;99.90;;;11.39;76.21;100431.53;4962056;29;19965;-85
2024/03/18 00:53:34;;;;;;;;;;;11.20;99.90;;;11.42;76.12;100431.09;4962318;29;19993;-85
2024/03/18 00:56:08;;;;;;;;;;;11.20;99.90;;;11.43;76.13;100425.56;4961203;29;19977;-85
2024/03/18 00:58:35;;;;;;;;;;;11.20;99.90;;;11.44;76.42;100421.84;4913040;29;19934;-85
2024/03/18 01:01:06;;;;;;;;;;;11.20;99.90;;;11.45;76.25;100419.97;4961925;29;19970;-84
2024/03/18 01:03:37;;;;;;;;;;;11.20;99.90;;;11.44;76.69;100419.16;4943915;29;19930;-84
2024/03/18 01:06:04;;;;;;;;;;;11.20;99.90;;;11.45;76.62;100425.31;4945227;29;19934;-85
2024/03/18 01:08:32;;;;;;;;;;;11.20;99.90;;;11.46;76.55;100422.44;4945017;29;19954;-85
2024/03/18 01:10:59;;;;;;;;;;;11.20;99.90;;;11.45;76.86;100419.97;4961527;29;19950;-85
2024/03/18 01:13:31;;;;;;;;;;;11.20;99.90;;;11.46;76.65;100422.44;4944336;29;19927;-85
2024/03/18 01:16:00;;;;;;;;;;;11.20;99.90;;;11.45;76.87;100415.44;4961617;29;19926;-84
2024/03/18 01:18:28;;;;;;;;;;;11.20;99.90;;;11.46;76.92;100413.59;4959616;28;20020;-84
2024/03/18 01:20:56;;;;;;;;;;;11.20;99.90;;;11.46;76.88;100416.28;4944798;29;19930;-84
2024/03/18 01:23:26;;;;;;;;;;;11.20;99.90;;;11.45;77.25;100412.78;4944285;29;19966;-85
2024/03/18 01:25:54;;;;;;;;;;;11.20;99.90;;;11.46;77.29;100402.91;4944363;29;19931;-84
2024/03/18 01:28:22;;;;;;;;;;;11.20;99.90;;;11.48;77.37;100409.69;4961520;29;19934;-84
2024/03/18 01:30:49;;;;;;;;;;;11.20;99.90;;;11.41;77.65;100405.44;4961485;29;19966;-84
2024/03/18 01:33:16;;;;;;;;;;;11.10;99.90;;;11.44;77.74;100397.81;4944898;29;19965;-85
2024/03/18 01:35:46;;;;;;;;;;;11.20;99.90;;;11.45;77.64;100403.97;4962657;29;19930;-84
2024/03/18 01:38:16;;;;;;;;;;;11.20;99.90;;;11.46;77.47;100398.38;4944219;29;19926;-84
2024/03/18 01:40:43;;;;;;;;;;;11.20;99.90;;;11.45;77.73;100388.75;4944586;29;19926;-85
2024/03/18 01:43:10;;;;;;;;;;;11.20;99.90;;;11.46;77.72;100384.22;4965904;28;19961;-85
2024/03/18 01:45:39;;;;;;;;;;;11.20;99.90;;;11.46;77.94;100390.38;4964898;29;20359;-85
2024/03/18 01:48:08;;;;;;;;;;;11.20;99.90;;;11.48;77.61;100390.19;4965083;29;19927;-85
2024/03/18 01:50:41;;;;;;;;;;;11.20;99.90;;;11.46;77.91;100382.38;4947682;29;19942;-85
2024/03/18 01:53:10;;;;;;;;;;;11.20;99.90;;;11.46;77.94;100377.03;4964987;29;19933;-84
2024/03/18 01:55:39;;;;;;;;;;;11.20;99.90;;;11.47;78.03;100372.53;4948460;29;19926;-85
2024/03/18 01:58:06;;;;;;;;;;;11.20;99.90;;;11.43;78.25;100377.47;4946292;29;19930;-85
2024/03/18 02:00:35;;;;;;;;;;;11.20;99.90;;;11.39;78.75;100375.47;4947118;29;20300;-85
2024/03/18 02:03:03;;;;;;;;;;;11.10;99.90;;;11.33;79.15;100369.97;4947757;29;19931;-84
2024/03/18 02:05:32;;;;;;;;;;;11.10;99.90;;;11.37;78.86;100372.19;4962327;29;20431;-84
2024/03/18 02:07:59;;;;;;;;;;;11.10;99.90;;;11.38;79.16;100366.63;4964011;29;19926;-85
2024/03/18 02:10:27;;;;;;;;;;;11.10;99.90;;;11.41;79.22;100368.03;4965188;29;20351;-84
2024/03/18 02:13:00;;;;;;;;;;;11.10;99.90;;;11.43;78.89;100368.66;4948240;29;19927;-85
2024/03/18 02:15:27;;;;;;;;;;;11.10;99.90;;;11.45;78.72;100366.56;4962476;29;19930;-85
2024/03/18 02:17:55;;;;;;;;;;;11.20;99.90;;;11.43;78.96;100371.31;4965493;29;19981;-85
2024/03/18 02:20:22;;;;;;;;;;;11.20;99.90;;;11.44;78.77;100359.59;4948230;29;19933;-85
2024/03/18 02:22:51;;;;;;;;;;;11.20;99.90;;;11.45;78.92;100367.38;4965811;29;19954;-85
2024/03/18 02:25:21;;;;;;;;;;;11.20;99.90;;;11.47;79.15;100359.19;4931859;29;19927;-85
2024/03/18 02:27:49;;;;;;;;;;;11.20;99.90;;;11.46;78.82;100366.34;4962541;29;19926;-85
2024/03/18 02:30:17;;;;;;;;;;;11.20;99.90;;;11.48;78.76;100360.81;4947606;29;20418;-85
2024/03/18 02:32:44;;;;;;;;;;;11.20;99.90;;;11.48;78.87;100360.81;4965448;29;19926;-84
2024/03/18 02:35:16;;;;;;;;;;;11.20;99.90;;;11.48;78.87;100358.13;4965319;29;20329;-85
2024/03/18 02:37:43;;;;;;;;;;;11.20;99.90;;;11.48;79.32;100350.13;4947120;29;19933;-84
2024/03/18 02:40:14;;;;;;;;;;;11.20;99.90;;;11.47;79.10;100343.97;4965760;29;19934;-85
2024/03/18 02:42:42;;;;;;;;;;;11.20;99.90;;;11.48;79.13;100350.13;4966048;29;19954;-85
2024/03/18 02:45:11;;;;;;;;;;;11.20;99.90;;;11.48;78.99;100348.25;4948242;29;19981;-84
2024/03/18 02:47:39;;;;;;;;;;;11.20;99.90;;;11.49;78.83;100346.41;4963847;29;19927;-85
2024/03/18 02:50:08;;;;;;;;;;;11.20;99.90;;;11.49;79.01;100343.75;4963824;28;20029;-85
2024/03/18 02:52:38;;;;;;;;;;;11.20;99.90;;;11.49;79.14;100338.41;4963768;28;19926;-85
2024/03/18 02:55:05;;;;;;;;;;;11.20;99.90;;;11.50;79.26;100340.03;4930368;29;19926;-84
2024/03/18 02:57:34;;;;;;;;;;;11.20;99.90;;;11.48;79.42;100334.91;4963543;29;19934;-85
2024/03/18 03:00:05;;;;;;;;;;;11.20;99.90;;;11.49;79.32;100343.75;4947064;29;20039;-85
2024/03/18 03:02:32;;;;;;;;;;;11.20;99.90;;;11.51;79.29;100341.66;4963935;29;20055;-85
2024/03/18 03:05:00;;;;;;;;;;;11.20;99.90;;;11.50;79.31;100340.84;4946733;29;19981;-85
2024/03/18 03:07:28;;;;;;;;;;;11.20;99.90;;;11.49;79.55;100333.88;4964728;28;19958;-85
2024/03/18 03:09:56;;;;;;;;;;;11.20;99.90;;;11.49;79.43;100330.38;4965935;29;19926;-84
2024/03/18 03:12:23;;;;;;;;;;;11.20;99.90;;;11.49;79.39;100330.38;4948395;29;19950;-85
2024/03/18 03:14:53;;;;;;;;;;;11.20;99.90;;;11.49;79.42;100333.88;4965892;29;19927;-84
2024/03/18 03:17:23;;;;;;;;;;;11.20;99.90;;;11.49;79.55;100325.03;4965305;29;19927;-84
2024/03/18 03:19:50;;;;;;;;;;;11.20;99.90;;;11.49;79.30;100317.03;4931590;29;19942;-84
2024/03/18 03:22:19;;;;;;;;;;;11.20;99.90;;;11.49;79.57;100319.69;4966428;28;19990;-84
2024/03/18 03:24:47;;;;;;;;;;;11.20;99.90;;;11.50;79.66;100326.66;4963825;29;19931;-84
2024/03/18 03:27:15;;;;;;;;;;;11.20;99.90;;;11.50;79.61;100326.66;4929966;29;19926;-84
2024/03/18 03:29:43;;;;;;;;;;;11.20;99.90;;;11.51;79.69;100321.09;4947557;29;20028;-85
2024/03/18 03:32:13;;;;;;;;;;;11.20;99.90;;;11.52;79.57;100329.94;4963438;29;19927;-85
2024/03/18 03:34:40;;;;;;;;;;;11.20;99.90;;;11.51;79.53;100317.63;4946800;29;19926;-85
2024/03/18 03:37:08;;;;;;;;;;;11.20;99.90;;;11.48;79.53;100320.75;4946165;29;19927;-84
2024/03/18 03:39:36;;;;;;;;;;;11.20;99.90;;;11.45;79.64;100318.50;4947490;29;19927;-84
2024/03/18 03:42:04;;;;;;;;;;;11.20;99.90;;;11.48;79.73;100320.75;4963621;29;19926;-85
2024/03/18 03:44:32;;;;;;;;;;;11.20;99.90;;;11.49;79.79;100317.84;4963326;28;19926;-84
2024/03/18 03:47:01;;;;;;;;;;;11.20;99.90;;;11.49;79.75;100320.50;4961481;29;19927;-84
2024/03/18 03:49:30;;;;;;;;;;;11.20;99.90;;;11.50;79.80;100316.00;4964938;29;19995;-84
2024/03/18 03:51:57;;;;;;;;;;;11.20;99.90;;;11.50;79.75;100307.97;4947884;29;19987;-84
2024/03/18 03:54:25;;;;;;;;;;;11.20;99.90;;;11.50;79.99;100307.97;4963581;29;19930;-85
2024/03/18 03:56:53;;;;;;;;;;;11.20;99.90;;;11.50;79.75;100316.00;4965097;29;19930;-84
2024/03/18 03:59:20;;;;;;;;;;;11.20;99.90;;;11.50;79.99;100316.00;4965618;28;19926;-84
2024/03/18 04:01:48;;;;;;;;;;;11.20;99.90;;;11.51;79.77;100309.59;4965597;29;19934;-84
2024/03/18 04:04:15;;;;;;;;;;;11.20;99.90;;;11.52;79.77;100303.25;4964931;28;19926;-84
2024/03/18 04:06:44;;;;;;;;;;;11.20;99.90;;;11.50;79.75;100306.13;4932885;29;19927;-84
2024/03/18 04:09:12;;;;;;;;;;;11.20;99.90;;;11.50;79.74;100311.47;4967126;29;19926;-85
2024/03/18 04:11:39;;;;;;;;;;;11.20;99.90;;;11.43;80.06;100308.06;4962508;29;19927;-84
2024/03/18 04:14:07;;;;;;;;;;;11.20;99.90;;;11.44;80.08;100309.69;4959293;29;20372;-84
2024/03/18 04:16:34;;;;;;;;;;;11.20;99.90;;;11.47;79.88;100311.09;4926290;29;19934;-84
2024/03/18 04:19:01;;;;;;;;;;;11.20;99.90;;;11.48;80.01;100308.22;4959453;29;19930;-85
2024/03/18 04:21:29;;;;;;;;;;;11.20;99.90;;;11.51;80.09;100314.94;4944002;29;20013;-85
2024/03/18 04:24:02;;;;;;;;;;;11.20;99.90;;;11.49;80.10;100307.16;4960274;29;19926;-84
2024/03/18 04:26:30;;;;;;;;;;;11.20;99.90;;;11.49;79.92;100311.69;4960974;29;19933;-84
2024/03/18 04:28:57;;;;;;;;;;;11.20;99.90;;;11.48;80.08;100312.72;4958794;29;20327;-85
2024/03/18 04:31:24;;;;;;;;;;;11.20;99.90;;;11.49;80.08;100317.84;4942959;29;19954;-85
2024/03/18 04:33:52;;;;;;;;;;;11.20;99.90;;;11.49;80.17;100314.34;4910669;29;20013;-85
2024/03/18 04:36:19;;;;;;;;;;;11.20;99.90;;;11.49;80.13;100306.34;4943506;29;19927;-84
2024/03/18 04:38:47;;;;;;;;;;;11.20;99.90;;;11.49;80.22;100309.03;4960535;29;19926;-85
2024/03/18 04:41:16;;;;;;;;;;;11.20;99.90;;;11.48;80.44;100307.41;4894179;28;1875176;-85
2024/03/18 04:43:43;;;;;;;;;;;11.20;99.90;;;11.47;80.62;100298.56;4943842;29;19930;-84
2024/03/18 04:46:10;;;;;;;;;;;11.20;99.90;;;11.48;80.54;100304.72;4959727;29;19935;-85
2024/03/18 04:48:38;;;;;;;;;;;11.20;99.90;;;11.48;80.48;100297.53;4944558;29;19981;-85
2024/03/18 04:51:05;;;;;;;;;;;11.20;99.90;;;11.50;80.46;100299.97;4959474;29;20016;-85
2024/03/18 04:53:33;;;;;;;;;;;11.20;99.90;;;11.50;80.44;100302.63;4944231;29;20384;-85
2024/03/18 04:56:00;;;;;;;;;;;11.20;99.90;;;11.50;80.30;100305.31;4960069;29;20348;-84
2024/03/18 04:58:31;;;;;;;;;;;11.20;99.90;;;11.50;80.40;100300.78;4945577;29;19930;-84
2024/03/18 05:00:58;;;;;;;;;;;11.20;99.90;;;11.48;80.60;100310.06;4960555;29;19972;-84
2024/03/18 05:03:25;;;;;;;;;;;11.20;99.90;;;11.50;80.57;100305.31;4943793;29;19926;-85
2024/03/18 05:05:53;;;;;;;;;;;11.20;99.90;;;11.50;80.69;100305.31;4927345;29;19926;-85
2024/03/18 05:08:20;;;;;;;;;;;11.20;99.90;;;11.52;80.72;100303.25;4962011;29;19927;-85
2024/03/18 05:10:47;;;;;;;;;;;11.20;99.90;;;11.51;80.85;100296.25;4943503;29;19936;-85
2024/03/18 05:13:15;;;;;;;;;;;11.20;99.90;;;11.51;80.78;100297.06;4960670;29;19950;-85
2024/03/18 05:15:44;;;;;;;;;;;11.20;99.90;;;11.52;80.70;100287.22;4958171;29;19935;-85
2024/03/18 05:18:11;;;;;;;;;;;11.20;99.90;;;11.53;80.70;100288.84;4960806;29;19927;-85
2024/03/18 05:20:41;;;;;;;;;;;11.20;99.90;;;11.52;80.90;100295.22;4960881;29;19937;-85
2024/03/18 05:23:08;;;;;;;;;;;11.20;99.90;;;11.52;80.77;100284.56;4961147;29;19930;-85
2024/03/18 05:25:35;;;;;;;;;;;11.20;99.90;;;11.52;80.95;100295.22;4957174;29;20570;-85
2024/03/18 05:28:03;;;;;;;;;;;11.20;99.90;;;11.51;80.83;100297.06;4962155;29;19937;-85
2024/03/18 05:30:30;;;;;;;;;;;11.20;99.90;;;11.50;80.95;100286.59;4962859;29;19927;-85
2024/03/18 05:32:59;;;;;;;;;;;11.20;99.90;;;11.49;81.05;100293.81;4956409;29;19930;-85
2024/03/18 05:35:26;;;;;;;;;;;11.20;99.90;;;11.53;81.04;100286.19;4938403;29;19961;-88
2024/03/18 05:37:53;;;;;;;;;;;11.20;99.90;;;11.53;81.18;100292.34;4955890;29;19931;-87
2024/03/18 05:40:20;;;;;;;;;;;11.20;99.90;;;11.52;80.97;100296.03;4940303;29;19926;-85
2024/03/18 05:42:48;;;;;;;;;;;11.20;99.90;;;11.53;81.00;100288.84;4939479;29;19933;-86
2024/03/18 05:45:19;;;;;;;;;;;11.20;99.90;;;11.52;80.96;100303.25;4954804;28;19974;-86
2024/03/18 05:47:47;;;;;;;;;;;11.20;99.90;;;11.52;81.04;100303.25;4938099;29;19973;-87
2024/03/18 05:50:16;;;;;;;;;;;11.20;99.90;;;11.51;80.82;100307.75;4956593;29;19937;-85
2024/03/18 05:52:43;;;;;;;;;;;11.20;99.90;;;11.52;80.93;100305.91;4957544;29;19926;-83
2024/03/18 05:55:11;;;;;;;;;;;11.20;99.90;;;11.52;80.90;100303.25;4941058;29;19926;-84
2024/03/18 05:57:39;;;;;;;;;;;11.20;99.90;;;11.53;80.99;100300.34;4940255;29;19926;-83
2024/03/18 06:00:07;;;;;;;;;;;11.20;99.90;;;11.53;81.08;100302.19;4958140;29;19950;-83
2024/03/18 06:02:39;;;;;;;;;;;11.30;99.90;;;11.55;81.09;100308.94;4958928;29;20009;-83
2024/03/18 06:05:06;;;;;;;;;;;11.30;99.90;;;11.54;81.14;100301.97;4957729;28;20384;-83
2024/03/18 06:07:38;;;;;;;;;;;11.30;99.90;;;11.55;81.18;100308.13;4956968;29;19930;-84
2024/03/18 06:10:07;;;;;;;;;;;11.50;99.90;;;11.54;81.26;100315.31;4958168;29;19927;-83
2024/03/18 06:12:37;;;;;;;;;;;11.30;99.90;;;11.56;81.51;100317.75;4958771;29;19927;-83
2024/03/18 06:15:05;;;;;;;;;;;11.30;99.90;;;11.56;81.71;100315.09;4956294;29;19926;-84
2024/03/18 06:17:39;;;;;;;;;;;11.30;99.90;;;11.57;81.82;100319.41;4958553;29;19930;-83
2024/03/18 06:20:11;;;;;;;;;;;11.30;99.90;;;11.57;81.86;100322.91;4958291;29;19997;-84
2024/03/18 06:22:39;;;;;;;;;;;11.30;99.90;;;11.57;81.68;100322.09;4958576;29;20419;-83
2024/03/18 06:28:08;;;;;;;;;;;11.30;99.90;;;11.57;81.74;100333.59;4924985;29;19927;-84
2024/03/18 06:30:35;;;;;;;;;;;11.30;99.90;;;11.58;81.85;100340.56;4911742;29;20393;-83
2024/03/18 06:33:03;;;;;;;;;;;11.30;99.90;;;11.58;81.92;100340.56;4925322;29;19937;-84
2024/03/18 06:35:30;;;;;;;;;;;11.40;99.90;;;11.58;82.22;100339.75;4963426;29;19962;-83
2024/03/18 06:37:59;;;;;;;;;;;11.30;99.90;;;11.57;82.40;100330.09;4965249;29;19927;-84
2024/03/18 06:40:26;;;;;;;;;;;11.30;99.90;;;11.58;82.27;100329.88;4966021;29;19926;-84
2024/03/18 06:42:53;;;;;;;;;;;11.30;99.90;;;11.57;82.54;100332.78;4949668;29;20311;-84
2024/03/18 06:45:21;;;;;;;;;;;11.40;99.90;;;11.56;82.19;100333.78;4964843;29;19941;-84
2024/03/18 06:47:48;;;;;;;;;;;11.40;99.90;;;11.53;82.15;100331.59;4966728;29;20013;-84
2024/03/18 06:50:18;;;;;;;;;;;11.40;99.90;;;11.48;82.56;100334.91;4965976;29;19965;-84
2024/03/18 06:52:47;;;;;;;;;;;11.30;99.90;;;11.52;82.63;100329.94;4933514;29;19998;-84
2024/03/18 06:55:16;;;;;;;;;;;11.30;99.90;;;11.57;82.53;100340.78;4964685;29;19962;-84
2024/03/18 06:57:43;;;;;;;;;;;11.40;99.90;;;11.55;82.38;100335.66;4948836;29;20388;-84
2024/03/18 07:00:11;;;;;;;;;;;11.40;99.90;;;11.50;82.70;100338.16;4964387;29;20417;-84
2024/03/18 07:02:39;;;;;;;;;;;11.40;99.90;;;11.50;82.87;100340.03;4964239;29;19997;-84
2024/03/18 07:05:08;;;;;;;;;;;11.40;99.90;;;11.55;83.19;100346.34;4963948;28;20010;-84
2024/03/18 07:07:35;;;;;;;;;;;11.40;99.90;;;11.56;83.04;100352.50;4948025;29;19930;-84
2024/03/18 07:10:02;;;;;;;;;;;11.50;99.90;;;11.55;83.14;100345.53;4963463;29;20281;-85
2024/03/18 07:12:31;;;;;;;;;;;11.50;99.90;;;11.57;83.42;100343.47;4947309;29;19934;-84
2024/03/18 07:14:58;;;;;;;;;;;11.40;99.90;;;11.57;83.58;100346.13;4946982;29;19950;-84
2024/03/18 07:17:25;;;;;;;;;;;11.50;99.90;;;11.60;83.42;100340.34;4946593;29;19954;-84
2024/03/18 07:19:52;;;;;;;;;;;11.50;99.90;;;11.60;83.72;100341.16;4963231;29;19930;-84
2024/03/18 07:22:19;;;;;;;;;;;11.50;99.90;;;11.64;83.64;100341.53;4963464;29;19935;-84
2024/03/18 07:24:47;;;;;;;;;;;11.50;99.90;;;11.63;83.75;100342.56;4962725;29;19926;-85
2024/03/18 07:27:14;;;;;;;;;;;11.60;99.90;;;11.70;83.56;100342.50;4963359;29;19965;-85
2024/03/18 07:29:43;;;;;;;;;;;11.60;99.90;;;11.71;83.56;100331.59;4947065;29;20379;-85
2024/03/18 07:32:12;;;;;;;;;;;11.60;99.90;;;11.77;83.78;100338.72;4962877;29;20395;-84
2024/03/18 07:34:39;;;;;;;;;;;11.70;99.90;;;11.84;83.76;100330.66;4946860;29;19969;-84
2024/03/18 07:37:07;;;;;;;;;;;11.70;99.90;;;11.88;83.64;100329.19;4963392;29;19977;-84
2024/03/18 07:39:35;;;;;;;;;;;11.70;99.90;;;11.91;83.63;100327.91;4961318;28;19930;-85
2024/03/18 07:42:03;;;;;;;;;;;11.80;99.90;;;11.92;83.83;100329.56;4961814;29;19926;-84
2024/03/18 07:44:30;;;;;;;;;;;11.80;99.90;;;11.97;83.84;100329.69;4961892;29;20471;-83
2024/03/18 07:46:59;;;;;;;;;;;11.80;99.90;;;11.96;84.22;100322.72;4963134;29;19930;-83
2024/03/18 07:49:26;;;;;;;;;;;11.80;99.90;;;12.01;84.03;100329.03;4963132;29;20311;-84
2024/03/18 07:51:53;;;;;;;;;;;11.90;99.90;;;12.01;84.02;100317.53;4963615;29;19958;-84
2024/03/18 07:54:20;;;;;;;;;;;11.90;99.90;;;12.02;84.40;100322.63;4961550;29;20423;-84
2024/03/18 07:56:47;;;;;;;;;;;11.90;99.90;;;12.07;84.64;100320.09;4962603;29;19927;-84
2024/03/18 07:59:15;;;;;;;;;;;12.00;99.90;;;12.08;84.87;100324.41;4962374;29;20400;-84
2024/03/18 08:01:42;;;;;;;;;;;12.00;99.90;;;12.10;84.91;100326.84;4962060;29;20471;-84
2024/03/18 08:04:10;;;;;;;;;;;12.00;99.90;;;12.08;84.77;100327.06;4961248;29;19933;-84
2024/03/18 08:06:40;;;;;;;;;;;12.00;99.90;;;12.09;84.45;100325.22;4944806;29;19961;-82
2024/03/18 08:09:08;;;;;;;;;;;12.10;99.90;;;12.10;83.91;100326.84;4962416;29;19933;-82
2024/03/18 08:11:35;;;;;;;;;;;12.00;99.90;;;12.11;84.31;100321.28;4944856;29;19949;-82
2024/03/18 08:14:02;;;;;;;;;;;12.00;99.90;;;12.10;84.73;100329.53;4943781;29;19927;-82
2024/03/18 08:16:30;;;;;;;;;;;12.00;99.90;;;12.11;84.52;100325.81;4961332;29;20000;-82
2024/03/18 08:18:57;;;;;;;;;;;12.10;99.90;;;12.07;84.61;100321.97;4928241;29;19973;-82
2024/03/18 08:21:25;;;;;;;;;;;12.10;99.90;;;12.09;84.85;100327.91;4962542;29;19927;-82
2024/03/18 08:23:53;;;;;;;;;;;12.10;99.90;;;12.08;84.85;100334.28;4960590;29;19927;-82
2024/03/18 08:26:20;;;;;;;;;;;12.00;99.90;;;12.04;84.59;100333.91;4961001;28;19934;-82
2024/03/18 08:28:47;;;;;;;;;;;12.00;99.90;;;12.00;84.69;100326.56;4960419;29;20017;-82
2024/03/18 08:31:14;;;;;;;;;;;12.00;99.90;;;11.99;84.81;100338.28;4959309;28;19926;-82
2024/03/18 08:33:42;;;;;;;;;;;12.00;99.90;;;12.00;84.83;100334.56;4960733;29;20025;-82
2024/03/18 08:36:09;;;;;;;;;;;12.00;99.90;;;12.00;85.40;100327.38;4944289;29;19926;-82
2024/03/18 08:38:40;;;;;;;;;;;12.00;99.90;;;12.05;85.26;100330.22;4960999;29;20383;-82
2024/03/18 08:41:08;;;;;;;;;;;12.00;99.90;;;12.01;85.20;100338.91;4961567;29;19938;-82
2024/03/18 08:43:35;;;;;;;;;;;12.00;99.90;;;12.06;84.94;100336.38;4928857;29;19933;-82
2024/03/18 08:46:06;;;;;;;;;;;12.10;99.90;;;12.11;85.18;100331.19;4943684;29;19948;-82
2024/03/18 08:48:33;;;;;;;;;;;12.10;99.90;;;12.15;85.03;100335.03;4961096;29;19926;-82
2024/03/18 08:51:01;;;;;;;;;;;12.20;99.90;;;12.16;85.20;100323.28;4943282;29;19977;-82
2024/03/18 08:53:28;;;;;;;;;;;12.20;99.90;;;12.18;85.17;100333.75;4959792;29;19926;-82
2024/03/18 08:55:57;;;;;;;;;;;12.20;99.90;;;12.23;85.49;100339.25;4944079;29;19926;-82
2024/03/18 08:58:24;;;;;;;;;;;12.30;99.90;;;12.24;85.38;100336.34;4961639;28;19972;-82
2024/03/18 09:00:53;;;;;;;;;;;12.30;99.90;;;12.25;85.44;100337.16;4960112;29;19930;-82
2024/03/18 09:03:20;;;;;;;;;;;12.30;99.90;;;12.28;85.53;100332.16;4961023;29;20292;-82
2024/03/18 09:05:54;;;;;;;;;;;12.30;99.90;;;12.32;85.44;100333.34;4943135;29;19977;-82
2024/03/18 09:08:22;;;;;;;;;;;12.40;99.90;;;12.34;85.64;100338.47;4961246;29;19930;-82
2024/03/18 09:10:49;;;;;;;;;;;12.40;99.90;;;12.36;85.56;100331.88;4961340;29;19932;-82
2024/03/18 09:13:18;;;;;;;;;;;12.40;99.90;;;12.39;86.12;100333.25;4960218;29;20447;-82
2024/03/18 09:15:45;;;;;;;;;;;12.40;99.90;;;12.44;86.27;100335.25;4926045;29;20034;-82
2024/03/18 09:18:13;;;;;;;;;;;12.50;99.90;;;12.49;86.18;100332.72;4959338;29;20347;-82
2024/03/18 09:20:40;;;;;;;;;;;12.50;99.90;;;12.50;85.29;100337.88;4960441;29;20419;-82
2024/03/18 09:23:08;;;;;;;;;;;12.50;99.90;;;12.52;85.02;100334.94;4960674;29;19953;-83
2024/03/18 09:25:36;;;;;;;;;;;12.60;99.90;;;12.56;85.52;100338.81;4959600;29;19930;-83
2024/03/18 09:28:04;;;;;;;;;;;12.70;99.90;;;12.62;85.70;100338.69;4960712;29;19926;-83
2024/03/18 09:30:33;;;;;;;;;;;12.80;99.90;;;12.74;85.34;100343.28;4910294;29;19934;-82
2024/03/18 09:33:01;;;;;;;;;;;12.90;99.90;;;12.88;85.32;100342.88;4927290;29;19961;-83
2024/03/18 09:35:28;;;;;;;;;;;13.00;99.90;;;13.06;86.03;100343.81;4960908;29;19926;-83
2024/03/18 09:37:56;;;;;;;;;;;13.30;99.90;;;13.22;85.21;100340.47;4960349;29;19927;-83
2024/03/18 09:40:27;;;;;;;;;;;13.50;99.90;;;13.32;83.21;100337.22;4960360;29;20013;-83
2024/03/18 09:42:54;;;;;;;;;;;13.60;99.90;;;13.33;83.06;100341.56;4959963;29;19926;-82
2024/03/18 09:45:22;;;;;;;;;;;13.60;99.90;;;13.30;82.80;100340.16;4942993;29;20487;-82
2024/03/18 09:47:54;;;;;;;;;;;13.50;99.90;;;13.28;81.99;100350.28;4959947;29;20461;-83
2024/03/18 09:50:23;;;;;;;;;;;13.50;99.90;;;13.29;82.18;100348.41;4943805;29;19927;-83
2024/03/18 09:52:50;;;;;;;;;;;13.50;99.90;;;13.28;82.32;100350.28;4959628;29;20017;-83
2024/03/18 09:55:21;;;;;;;;;;;13.60;99.90;;;13.21;80.14;100354.88;4959635;29;20366;-83
2024/03/18 09:57:49;;;;;;;;;;;13.50;99.90;;;13.14;79.04;100357.69;4942570;29;19926;-83
2024/03/18 10:00:17;;;;;;;;;;;13.40;99.90;;;13.15;80.47;100358.50;4942939;29;19933;-83
2024/03/18 10:02:44;;;;;;;;;;;13.30;99.90;;;13.15;80.55;100355.81;4961684;28;19933;-83
2024/03/18 10:05:13;;;;;;;;;;;13.30;99.90;;;13.20;80.69;100361.31;4945982;29;19927;-83
2024/03/18 10:07:43;;;;;;;;;;;13.40;99.90;;;13.15;79.48;100361.19;4963749;29;19990;-83
2024/03/18 10:10:16;;;;;;;;;;;13.30;99.90;;;13.18;79.94;100357.25;4946080;29;19990;-83
2024/03/18 10:12:43;;;;;;;;;;;13.30;99.90;;;13.18;78.95;100367.94;4962906;29;19969;-83
2024/03/18 10:15:13;;;;;;;;;;;13.30;99.90;;;13.14;79.54;100370.25;4962006;28;19926;-83
2024/03/18 10:17:42;;;;;;;;;;;13.30;99.90;;;13.13;79.93;100371.31;4963404;29;19933;-83
2024/03/18 10:20:22;;;;;;;;;;;13.30;99.90;;;13.14;80.78;100372.94;4962787;29;19934;-83
2024/03/18 10:22:51;;;;;;;;;;;13.30;99.90;;;13.17;80.74;100367.09;4963258;29;19948;-83
2024/03/18 10:25:21;;;;;;;;;;;13.30;99.90;;;13.20;78.82;100365.84;4963668;29;19927;-83
2024/03/18 10:27:48;;;;;;;;;;;13.40;99.90;;;13.27;79.44;100375.41;4946130;29;19931;-83
2024/03/18 10:30:16;;;;;;;;;;;13.50;99.90;;;13.30;78.38;100364.25;4945136;29;20388;-82
2024/03/18 10:32:47;;;;;;;;;;;13.50;99.90;;;13.29;76.60;100365.31;4962141;29;19927;-82
2024/03/18 10:35:23;;;;;;;;;;;13.50;99.90;;;13.33;77.10;100365.66;4945544;29;19926;-83
2024/03/18 10:37:55;;;;;;;;;;;13.50;99.90;;;13.42;77.44;100366.13;4961947;29;19926;-83
2024/03/18 10:40:37;;;;;;;;;;;13.60;99.90;;;13.48;77.72;100366.03;4961195;29;19926;-82
2024/03/18 10:43:06;;;;;;;;;;;13.70;99.90;;;13.51;76.97;100376.25;4962925;29;19934;-83
2024/03/18 10:45:35;;;;;;;;;;;13.70;99.90;;;13.47;76.11;100375.13;4945565;29;19933;-83
2024/03/18 10:48:03;;;;;;;;;;;13.70;99.90;;;13.46;76.47;100369.97;4945278;29;19926;-83
2024/03/18 10:50:32;;;;;;;;;;;13.70;99.90;;;13.43;76.70;100370.44;4945707;29;19973;-83
2024/03/18 10:53:00;;;;;;;;;;;13.60;99.90;;;13.44;76.04;100372.06;4962993;29;20024;-83
2024/03/18 10:55:30;;;;;;;;;;;13.60;99.90;;;13.50;75.94;100380.00;4945585;29;20013;-83
2024/03/18 10:58:00;;;;;;;;;;;13.70;99.90;;;13.56;76.32;100375.56;4961579;29;19934;-83
2024/03/18 11:00:28;;;;;;;;;;;13.70;99.90;;;13.60;75.18;100374.84;4961189;29;20388;-83
2024/03/18 11:03:00;;;;;;;;;;;13.80;99.90;;;13.68;74.96;100376.38;4962954;28;20406;-83
2024/03/18 11:05:29;;;;;;;;;;;13.90;99.90;;;13.73;75.42;100373.81;4962680;29;19926;-83
2024/03/18 11:08:00;;;;;;;;;;;13.90;99.90;;;13.79;76.43;100375.56;4961774;29;20021;-83
2024/03/18 11:10:30;;;;;;;;;;;14.00;99.90;;;13.81;76.08;100376.16;4945637;29;20439;-83
2024/03/18 11:13:11;;;;;;;;;;;14.00;99.90;;;13.81;74.49;100380.66;4963885;28;19926;-83
2024/03/18 11:15:39;;;;;;;;;;;14.00;99.90;;;13.79;74.15;100378.22;4944623;29;20348;-83
2024/03/18 11:18:07;;;;;;;;;;;14.00;99.90;;;13.77;75.13;100379.53;4962537;29;20391;-83